Niobrara, NE (68760)

11:18 AM CST on February 10, 2016 (GMT -0600)
Hajek Farms | | Change Station
CLOSE
Current Station
Personal Weather Station
Location: Tyndall, SD
Elevation: 1378 ft
Nearby Weather Stations

Elev 1378 ft 42.97 °N, 97.92 °W | Updated 2 seconds ago

Clear
Clear
30.1 °F
Feels Like 21 °F
N
10.0
Wind Variable Wind from ESE
Gusts 11.0 mph

Today
High -- | Low -- °F
--% Chance of Precip.
Yesterday
High -- | Low -- °F
Precip. -- in
Pressure 29.92 in
Visibility 10.0 miles
Clouds Clear
Windchill 21 °F
Dew Point 22 °F
Humidity 73%
Rainfall 0.00 in
Snow Depth Not available.
7:36 AM 5:56 PM
Waxing Crescent, 6% visible
METAR KYKN 101715Z AUTO 10010KT 10SM CLR M04/M08 A2992 RMK AO1
Pressure 29.92 in
Visibility 10.0 miles
Clouds Clear
Windchill 21 °F
Dew Point 22 °F
Humidity 73%
Rainfall 0.00 in
Snow Depth Not available.
7:36 AM 5:56 PM
Waxing Crescent, 6% visible
METAR KYKN 101715Z AUTO 10010KT 10SM CLR M04/M08 A2992 RMK AO1

10-Day Weather Forecast

Almanac

Astronomy

Feb. 10, 2016 Rise Set
Actual Time
Civil Twilight
Nautical Twilight
Astronomical Twilight
Moon
Length of Visible Light
Length of Day
Tomorrow will be .
, % of the Moon is Illuminated

Today's Extremes

State Highs State Lows

Community

WunderPhotos

Upload Photos

1,891,893 photos uploaded!

WunderBlog® & News

Nearby

Air Quality

  Air Quality AQ Index Pollutant
Not available.

Snow Depth

Station Depth Elevation

Earthquake Activity

City Distance Mag. Time & Date
Minimum magnitude displayed is 2.5.

Coastal Water Temperatures

Place Temperature

Stations

Nearby Weather Stations

Station Location Temp. Windchill Dew Point Humidity Wind Precip. Elev Updated Type
                   

Watches & Warnings

There are currently no watches in effect.